sensor_id;sensor_type;location;lat;lon;timestamp;P1;durP1;ratioP1;P2;durP2;ratioP2
63394;SDS011;49531;-34.520;150.798;2023-04-01T04:00:26;3.55;;;1.30;;
63394;SDS011;49531;-34.520;150.798;2023-04-01T04:02:53;3.47;;;1.40;;
63394;SDS011;49531;-34.520;150.798;2023-04-01T04:05:22;2.92;;;1.38;;
63394;SDS011;49531;-34.520;150.798;2023-04-01T04:07:50;3.20;;;1.30;;
63394;SDS011;49531;-34.520;150.798;2023-04-01T04:10:18;13.00;;;1.50;;
63394;SDS011;49531;-34.520;150.798;2023-04-01T04:12:46;4.93;;;1.50;;
63394;SDS011;49531;-34.520;150.798;2023-04-01T04:15:15;2.95;;;1.20;;
63394;SDS011;49531;-34.520;150.798;2023-04-01T04:17:43;4.85;;;1.45;;
63394;SDS011;49531;-34.520;150.798;2023-04-01T04:20:11;2.35;;;1.27;;
63394;SDS011;49531;-34.520;150.798;2023-04-01T04:22:39;5.68;;;1.30;;
63394;SDS011;49531;-34.520;150.798;2023-04-01T04:25:06;5.78;;;1.20;;
63394;SDS011;49531;-34.520;150.798;2023-04-01T04:27:34;5.53;;;1.55;;
63394;SDS011;49531;-34.520;150.798;2023-04-01T04:30:02;7.30;;;1.50;;
63394;SDS011;49531;-34.520;150.798;2023-04-01T04:32:31;7.13;;;1.38;;
63394;SDS011;49531;-34.520;150.798;2023-04-01T04:34:58;4.10;;;1.50;;
63394;SDS011;49531;-34.520;150.798;2023-04-01T04:37:25;3.55;;;1.23;;
63394;SDS011;49531;-34.520;150.798;2023-04-01T04:39:52;4.55;;;1.40;;
63394;SDS011;49531;-34.520;150.798;2023-04-01T04:42:19;3.72;;;1.40;;
63394;SDS011;49531;-34.520;150.798;2023-04-01T04:44:47;3.60;;;1.10;;
63394;SDS011;49531;-34.520;150.798;2023-04-01T04:47:15;4.68;;;1.42;;
63394;SDS011;49531;-34.520;150.798;2023-04-01T04:49:42;3.10;;;1.20;;
63394;SDS011;49531;-34.520;150.798;2023-04-01T04:52:09;2.25;;;1.17;;
63394;SDS011;49531;-34.520;150.798;2023-04-01T04:54:36;2.78;;;1.33;;
63394;SDS011;49531;-34.520;150.798;2023-04-01T04:57:03;4.13;;;1.30;;
63394;SDS011;49531;-34.520;150.798;2023-04-01T04:59:30;2.95;;;1.30;;
63394;SDS011;49531;-34.520;150.798;2023-04-01T05:01:58;3.03;;;1.20;;
63394;SDS011;49531;-34.520;150.798;2023-04-01T05:04:25;3.22;;;1.30;;
63394;SDS011;49531;-34.520;150.798;2023-04-01T05:06:52;3.38;;;1.40;;
63394;SDS011;49531;-34.520;150.798;2023-04-01T05:09:20;2.55;;;1.27;;
63394;SDS011;49531;-34.520;150.798;2023-04-01T05:11:47;3.08;;;1.50;;
63394;SDS011;49531;-34.520;150.798;2023-04-01T05:14:15;2.35;;;1.25;;
63394;SDS011;49531;-34.520;150.798;2023-04-01T05:16:43;12.35;;;1.48;;
63394;SDS011;49531;-34.520;150.798;2023-04-01T05:19:10;7.07;;;1.33;;
63394;SDS011;49531;-34.520;150.798;2023-04-01T05:21:37;4.20;;;1.40;;
63394;SDS011;49531;-34.520;150.798;2023-04-01T05:24:07;2.92;;;1.30;;
63394;SDS011;49531;-34.520;150.798;2023-04-01T05:26:35;3.42;;;1.20;;
63394;SDS011;49531;-34.520;150.798;2023-04-01T05:29:03;11.00;;;1.40;;
63394;SDS011;49531;-34.520;150.798;2023-04-01T05:31:31;4.18;;;1.20;;
63394;SDS011;49531;-34.520;150.798;2023-04-01T05:33:58;1.85;;;1.10;;
63394;SDS011;49531;-34.520;150.798;2023-04-01T05:36:25;2.65;;;1.20;;
63394;SDS011;49531;-34.520;150.798;2023-04-01T05:38:54;5.53;;;1.35;;
63394;SDS011;49531;-34.520;150.798;2023-04-01T05:41:21;2.97;;;1.33;;
63394;SDS011;49531;-34.520;150.798;2023-04-01T05:43:49;2.55;;;1.35;;
63394;SDS011;49531;-34.520;150.798;2023-04-01T05:46:16;3.30;;;1.23;;
63394;SDS011;49531;-34.520;150.798;2023-04-01T05:48:43;5.25;;;1.30;;
63394;SDS011;49531;-34.520;150.798;2023-04-01T05:51:12;2.72;;;1.35;;
63394;SDS011;49531;-34.520;150.798;2023-04-01T05:53:41;1.80;;;1.40;;
63394;SDS011;49531;-34.520;150.798;2023-04-01T05:56:09;3.00;;;1.17;;
63394;SDS011;49531;-34.520;150.798;2023-04-01T05:58:36;3.80;;;1.25;;
63394;SDS011;49531;-34.520;150.798;2023-04-01T06:01:06;3.83;;;1.20;;
63394;SDS011;49531;-34.520;150.798;2023-04-01T06:03:35;3.30;;;1.30;;
63394;SDS011;49531;-34.520;150.798;2023-04-01T06:06:03;3.45;;;1.20;;
63394;SDS011;49531;-34.520;150.798;2023-04-01T06:08:31;1.95;;;1.08;;
63394;SDS011;49531;-34.520;150.798;2023-04-01T06:13:58;3.22;;;1.02;;
63394;SDS011;49531;-34.520;150.798;2023-04-01T06:16:54;5.20;;;1.10;;
63394;SDS011;49531;-34.520;150.798;2023-04-01T06:19:47;3.53;;;1.00;;
63394;SDS011;49531;-34.520;150.798;2023-04-01T06:22:32;3.42;;;1.00;;
63394;SDS011;49531;-34.520;150.798;2023-04-01T06:25:14;3.08;;;1.20;;
63394;SDS011;49531;-34.520;150.798;2023-04-01T06:31:03;2.72;;;1.00;;
63394;SDS011;49531;-34.520;150.798;2023-04-01T06:33:46;2.33;;;1.02;;
63394;SDS011;49531;-34.520;150.798;2023-04-01T06:42:33;1.95;;;0.90;;
63394;SDS011;49531;-34.520;150.798;2023-04-01T06:48:13;2.97;;;1.10;;
63394;SDS011;49531;-34.520;150.798;2023-04-01T06:51:13;3.95;;;1.20;;
63394;SDS011;49531;-34.520;150.798;2023-04-01T06:54:15;4.00;;;1.02;;
63394;SDS011;49531;-34.520;150.798;2023-04-01T06:56:51;3.08;;;1.05;;
63394;SDS011;49531;-34.520;150.798;2023-04-01T06:59:25;2.35;;;1.00;;
63394;SDS011;49531;-34.520;150.798;2023-04-01T07:01:58;2.53;;;0.85;;
63394;SDS011;49531;-34.520;150.798;2023-04-01T07:04:46;3.22;;;0.80;;
63394;SDS011;49531;-34.520;150.798;2023-04-01T07:07:28;5.10;;;1.03;;
63394;SDS011;49531;-34.520;150.798;2023-04-01T07:10:13;2.97;;;0.93;;
63394;SDS011;49531;-34.520;150.798;2023-04-01T07:12:46;3.92;;;1.17;;
63394;SDS011;49531;-34.520;150.798;2023-04-01T07:15:21;3.00;;;1.00;;
63394;SDS011;49531;-34.520;150.798;2023-04-01T07:18:03;2.35;;;0.90;;
63394;SDS011;49531;-34.520;150.798;2023-04-01T07:20:38;4.95;;;1.00;;
63394;SDS011;49531;-34.520;150.798;2023-04-01T07:23:21;4.43;;;0.90;;
63394;SDS011;49531;-34.520;150.798;2023-04-01T07:25:52;1.65;;;0.80;;
63394;SDS011;49531;-34.520;150.798;2023-04-01T07:31:05;2.17;;;1.00;;
63394;SDS011;49531;-34.520;150.798;2023-04-01T07:33:55;3.10;;;1.00;;
63394;SDS011;49531;-34.520;150.798;2023-04-01T07:36:38;2.50;;;0.80;;
63394;SDS011;49531;-34.520;150.798;2023-04-01T07:42:21;2.72;;;0.93;;
63394;SDS011;49531;-34.520;150.798;2023-04-01T07:48:06;3.80;;;1.00;;
63394;SDS011;49531;-34.520;150.798;2023-04-01T07:50:57;3.55;;;1.00;;
63394;SDS011;49531;-34.520;150.798;2023-04-01T07:53:49;2.33;;;0.90;;
63394;SDS011;49531;-34.520;150.798;2023-04-01T07:56:32;4.55;;;1.00;;
63394;SDS011;49531;-34.520;150.798;2023-04-01T08:02:13;3.22;;;1.00;;
63394;SDS011;49531;-34.520;150.798;2023-04-01T08:05:00;3.30;;;1.08;;
63394;SDS011;49531;-34.520;150.798;2023-04-01T08:07:43;2.55;;;0.82;;
63394;SDS011;49531;-34.520;150.798;2023-04-01T08:10:33;1.40;;;0.75;;
63394;SDS011;49531;-34.520;150.798;2023-04-01T08:13:30;1.25;;;0.77;;
63394;SDS011;49531;-34.520;150.798;2023-04-01T08:19:05;2.25;;;0.80;;
63394;SDS011;49531;-34.520;150.798;2023-04-01T08:21:57;2.38;;;0.90;;
63394;SDS011;49531;-34.520;150.798;2023-04-01T08:24:33;2.15;;;0.80;;
63394;SDS011;49531;-34.520;150.798;2023-04-01T08:27:11;2.40;;;0.90;;
63394;SDS011;49531;-34.520;150.798;2023-04-01T08:29:47;1.25;;;0.75;;
63394;SDS011;49531;-34.520;150.798;2023-04-01T08:32:25;0.95;;;0.80;;
63394;SDS011;49531;-34.520;150.798;2023-04-01T08:35:02;3.03;;;0.80;;
63394;SDS011;49531;-34.520;150.798;2023-04-01T08:37:41;1.15;;;0.77;;
63394;SDS011;49531;-34.520;150.798;2023-04-01T08:43:15;1.25;;;0.80;;
63394;SDS011;49531;-34.520;150.798;2023-04-01T08:49:07;0.93;;;0.70;;
63394;SDS011;49531;-34.520;150.798;2023-04-01T08:51:51;1.45;;;0.90;;
63394;SDS011;49531;-34.520;150.798;2023-04-01T08:54:42;2.42;;;0.90;;
63394;SDS011;49531;-34.520;150.798;2023-04-01T08:57:37;1.38;;;0.80;;
63394;SDS011;49531;-34.520;150.798;2023-04-01T09:00:24;1.70;;;0.80;;
63394;SDS011;49531;-34.520;150.798;2023-04-01T09:05:58;1.48;;;0.77;;
63394;SDS011;49531;-34.520;150.798;2023-04-01T09:08:52;1.95;;;0.93;;
63394;SDS011;49531;-34.520;150.798;2023-04-01T09:11:58;1.88;;;0.90;;
63394;SDS011;49531;-34.520;150.798;2023-04-01T09:14:59;1.35;;;0.80;;
63394;SDS011;49531;-34.520;150.798;2023-04-01T09:18:03;2.30;;;0.90;;
63394;SDS011;49531;-34.520;150.798;2023-04-01T09:20:58;1.10;;;0.70;;
63394;SDS011;49531;-34.520;150.798;2023-04-01T09:26:46;0.93;;;0.60;;
63394;SDS011;49531;-34.520;150.798;2023-04-01T09:32:39;2.58;;;0.88;;
63394;SDS011;49531;-34.520;150.798;2023-04-01T09:35:22;2.08;;;0.70;;
63394;SDS011;49531;-34.520;150.798;2023-04-01T09:40:57;1.75;;;0.80;;
63394;SDS011;49531;-34.520;150.798;2023-04-01T09:43:46;1.60;;;0.80;;
63394;SDS011;49531;-34.520;150.798;2023-04-01T09:49:43;2.50;;;0.90;;
63394;SDS011;49531;-34.520;150.798;2023-04-01T09:52:44;3.15;;;0.70;;
63394;SDS011;49531;-34.520;150.798;2023-04-01T09:55:43;1.80;;;0.90;;
63394;SDS011;49531;-34.520;150.798;2023-04-01T09:58:40;1.15;;;0.70;;
63394;SDS011;49531;-34.520;150.798;2023-04-01T10:01:42;1.75;;;0.80;;
63394;SDS011;49531;-34.520;150.798;2023-04-01T10:04:40;1.88;;;0.88;;
63394;SDS011;49531;-34.520;150.798;2023-04-01T10:07:40;2.13;;;0.90;;
63394;SDS011;49531;-34.520;150.798;2023-04-01T10:10:42;1.67;;;0.75;;
63394;SDS011;49531;-34.520;150.798;2023-04-01T10:19:25;1.52;;;0.75;;
63394;SDS011;49531;-34.520;150.798;2023-04-01T10:22:23;1.45;;;0.60;;
63394;SDS011;49531;-34.520;150.798;2023-04-01T10:25:13;1.95;;;0.73;;
63394;SDS011;49531;-34.520;150.798;2023-04-01T10:28:27;2.30;;;0.98;;
63394;SDS011;49531;-34.520;150.798;2023-04-01T10:31:02;1.35;;;0.80;;
63394;SDS011;49531;-34.520;150.798;2023-04-01T10:33:54;2.22;;;0.95;;
63394;SDS011;49531;-34.520;150.798;2023-04-01T10:36:47;3.22;;;0.82;;
63394;SDS011;49531;-34.520;150.798;2023-04-01T10:42:33;1.33;;;0.70;;
63394;SDS011;49531;-34.520;150.798;2023-04-01T10:45:28;1.52;;;0.70;;
63394;SDS011;49531;-34.520;150.798;2023-04-01T10:51:23;1.35;;;0.80;;
63394;SDS011;49531;-34.520;150.798;2023-04-01T10:54:17;1.75;;;0.80;;
63394;SDS011;49531;-34.520;150.798;2023-04-01T11:06:10;1.67;;;0.80;;
63394;SDS011;49531;-34.520;150.798;2023-04-01T11:09:17;2.28;;;0.77;;
63394;SDS011;49531;-34.520;150.798;2023-04-01T11:12:07;2.63;;;0.88;;
63394;SDS011;49531;-34.520;150.798;2023-04-01T11:18:14;1.55;;;0.80;;
63394;SDS011;49531;-34.520;150.798;2023-04-01T11:23:59;1.13;;;0.70;;
63394;SDS011;49531;-34.520;150.798;2023-04-01T11:27:01;2.05;;;0.68;;
63394;SDS011;49531;-34.520;150.798;2023-04-01T11:29:58;1.45;;;0.60;;
63394;SDS011;49531;-34.520;150.798;2023-04-01T11:32:46;1.52;;;0.57;;
63394;SDS011;49531;-34.520;150.798;2023-04-01T11:35:32;1.35;;;0.65;;
63394;SDS011;49531;-34.520;150.798;2023-04-01T11:38:26;0.95;;;0.50;;
63394;SDS011;49531;-34.520;150.798;2023-04-01T11:41:18;0.90;;;0.50;;
63394;SDS011;49531;-34.520;150.798;2023-04-01T11:55:30;1.85;;;0.60;;
63394;SDS011;49531;-34.520;150.798;2023-04-01T11:58:18;3.00;;;0.60;;
63394;SDS011;49531;-34.520;150.798;2023-04-01T12:01:13;1.65;;;0.60;;
63394;SDS011;49531;-34.520;150.798;2023-04-01T12:06:58;1.00;;;0.50;;
63394;SDS011;49531;-34.520;150.798;2023-04-01T12:09:48;1.15;;;0.60;;
63394;SDS011;49531;-34.520;150.798;2023-04-01T12:12:28;1.25;;;0.57;;
63394;SDS011;49531;-34.520;150.798;2023-04-01T12:15:19;1.98;;;0.63;;
63394;SDS011;49531;-34.520;150.798;2023-04-01T12:18:00;1.58;;;0.60;;
63394;SDS011;49531;-34.520;150.798;2023-04-01T12:20:43;1.63;;;0.63;;
63394;SDS011;49531;-34.520;150.798;2023-04-01T12:29:31;1.20;;;0.60;;
63394;SDS011;49531;-34.520;150.798;2023-04-01T12:35:20;1.70;;;0.52;;
63394;SDS011;49531;-34.520;150.798;2023-04-01T12:37:56;1.05;;;0.47;;
63394;SDS011;49531;-34.520;150.798;2023-04-01T12:40:45;1.85;;;0.60;;
63394;SDS011;49531;-34.520;150.798;2023-04-01T12:43:34;1.33;;;0.60;;
63394;SDS011;49531;-34.520;150.798;2023-04-01T12:46:28;1.05;;;0.50;;
63394;SDS011;49531;-34.520;150.798;2023-04-01T12:52:03;2.35;;;0.60;;
63394;SDS011;49531;-34.520;150.798;2023-04-01T12:57:34;2.47;;;0.70;;
63394;SDS011;49531;-34.520;150.798;2023-04-01T13:00:25;1.25;;;0.57;;
63394;SDS011;49531;-34.520;150.798;2023-04-01T13:03:25;1.20;;;0.63;;
63394;SDS011;49531;-34.520;150.798;2023-04-01T13:06:15;1.52;;;0.63;;
63394;SDS011;49531;-34.520;150.798;2023-04-01T13:12:09;2.67;;;0.80;;
63394;SDS011;49531;-34.520;150.798;2023-04-01T13:17:53;2.05;;;0.50;;
63394;SDS011;49531;-34.520;150.798;2023-04-01T13:20:36;1.05;;;0.50;;
63394;SDS011;49531;-34.520;150.798;2023-04-01T13:23:17;1.65;;;0.68;;
63394;SDS011;49531;-34.520;150.798;2023-04-01T13:28:59;2.42;;;0.60;;
63394;SDS011;49531;-34.520;150.798;2023-04-01T13:31:48;3.40;;;0.63;;
63394;SDS011;49531;-34.520;150.798;2023-04-01T13:34:39;1.77;;;0.60;;
63394;SDS011;49531;-34.520;150.798;2023-04-01T13:37:25;2.30;;;0.80;;
63394;SDS011;49531;-34.520;150.798;2023-04-01T13:43:11;1.48;;;0.57;;
63394;SDS011;49531;-34.520;150.798;2023-04-01T13:48:51;2.33;;;0.88;;
63394;SDS011;49531;-34.520;150.798;2023-04-01T13:51:45;2.17;;;0.60;;
63394;SDS011;49531;-34.520;150.798;2023-04-01T13:57:23;1.52;;;0.60;;
63394;SDS011;49531;-34.520;150.798;2023-04-01T14:00:19;1.20;;;0.63;;
63394;SDS011;49531;-34.520;150.798;2023-04-01T14:05:56;1.42;;;0.70;;
63394;SDS011;49531;-34.520;150.798;2023-04-01T14:08:47;1.30;;;0.68;;
63394;SDS011;49531;-34.520;150.798;2023-04-01T14:11:45;1.92;;;0.70;;
63394;SDS011;49531;-34.520;150.798;2023-04-01T14:14:29;1.77;;;0.65;;
63394;SDS011;49531;-34.520;150.798;2023-04-01T14:17:29;1.30;;;0.57;;
63394;SDS011;49531;-34.520;150.798;2023-04-01T14:20:20;1.30;;;0.60;;
63394;SDS011;49531;-34.520;150.798;2023-04-01T14:23:12;1.45;;;0.70;;
63394;SDS011;49531;-34.520;150.798;2023-04-01T14:26:03;1.95;;;0.50;;
63394;SDS011;49531;-34.520;150.798;2023-04-01T14:29:09;1.33;;;0.57;;
63394;SDS011;49531;-34.520;150.798;2023-04-01T14:31:59;1.55;;;0.60;;
63394;SDS011;49531;-34.520;150.798;2023-04-01T14:40:26;1.80;;;0.70;;
63394;SDS011;49531;-34.520;150.798;2023-04-01T14:43:03;1.50;;;0.60;;
63394;SDS011;49531;-34.520;150.798;2023-04-01T14:45:55;1.00;;;0.63;;
63394;SDS011;49531;-34.520;150.798;2023-04-01T14:48:50;0.82;;;0.50;;
63394;SDS011;49531;-34.520;150.798;2023-04-01T14:51:23;1.40;;;0.60;;
63394;SDS011;49531;-34.520;150.798;2023-04-01T14:54:09;0.75;;;0.60;;
63394;SDS011;49531;-34.520;150.798;2023-04-01T14:56:50;2.45;;;0.60;;
63394;SDS011;49531;-34.520;150.798;2023-04-01T14:59:29;1.23;;;0.52;;
63394;SDS011;49531;-34.520;150.798;2023-04-01T15:02:18;1.40;;;0.68;;
63394;SDS011;49531;-34.520;150.798;2023-04-01T15:05:06;1.55;;;0.60;;
63394;SDS011;49531;-34.520;150.798;2023-04-01T15:07:57;1.58;;;0.50;;
63394;SDS011;49531;-34.520;150.798;2023-04-01T15:10:35;1.60;;;0.68;;
63394;SDS011;49531;-34.520;150.798;2023-04-01T15:13:24;1.52;;;0.60;;
63394;SDS011;49531;-34.520;150.798;2023-04-01T15:16:19;1.45;;;0.57;;
63394;SDS011;49531;-34.520;150.798;2023-04-01T15:19:14;1.35;;;0.50;;
63394;SDS011;49531;-34.520;150.798;2023-04-01T15:22:04;1.38;;;0.70;;
63394;SDS011;49531;-34.520;150.798;2023-04-01T15:27:47;2.20;;;0.60;;
63394;SDS011;49531;-34.520;150.798;2023-04-01T15:33:24;1.73;;;0.70;;
63394;SDS011;49531;-34.520;150.798;2023-04-01T15:36:26;2.83;;;0.70;;
63394;SDS011;49531;-34.520;150.798;2023-04-01T15:39:13;1.33;;;0.60;;
63394;SDS011;49531;-34.520;150.798;2023-04-01T15:42:04;1.58;;;0.68;;
63394;SDS011;49531;-34.520;150.798;2023-04-01T15:44:46;1.92;;;0.60;;
63394;SDS011;49531;-34.520;150.798;2023-04-01T15:47:31;1.63;;;0.70;;
63394;SDS011;49531;-34.520;150.798;2023-04-01T15:50:18;1.10;;;0.60;;
63394;SDS011;49531;-34.520;150.798;2023-04-01T15:53:08;1.37;;;0.60;;
63394;SDS011;49531;-34.520;150.798;2023-04-01T15:55:47;0.98;;;0.60;;
63394;SDS011;49531;-34.520;150.798;2023-04-01T15:58:32;1.67;;;0.60;;
63394;SDS011;49531;-34.520;150.798;2023-04-01T16:01:25;2.03;;;0.80;;
63394;SDS011;49531;-34.520;150.798;2023-04-01T16:07:01;1.20;;;0.60;;
63394;SDS011;49531;-34.520;150.798;2023-04-01T16:09:52;2.28;;;0.80;;
63394;SDS011;49531;-34.520;150.798;2023-04-01T16:12:41;4.18;;;0.70;;
63394;SDS011;49531;-34.520;150.798;2023-04-01T16:15:28;1.67;;;0.63;;
63394;SDS011;49531;-34.520;150.798;2023-04-01T16:18:20;1.88;;;0.50;;
63394;SDS011;49531;-34.520;150.798;2023-04-01T16:21:01;1.67;;;0.68;;
63394;SDS011;49531;-34.520;150.798;2023-04-01T16:23:50;1.60;;;0.70;;
63394;SDS011;49531;-34.520;150.798;2023-04-01T16:26:44;1.55;;;0.60;;
63394;SDS011;49531;-34.520;150.798;2023-04-01T16:29:26;1.70;;;0.63;;
63394;SDS011;49531;-34.520;150.798;2023-04-01T16:32:22;1.98;;;0.70;;
63394;SDS011;49531;-34.520;150.798;2023-04-01T16:35:14;3.00;;;0.60;;
63394;SDS011;49531;-34.520;150.798;2023-04-01T16:38:01;1.65;;;0.68;;
63394;SDS011;49531;-34.520;150.798;2023-04-01T16:40:53;1.08;;;0.50;;
63394;SDS011;49531;-34.520;150.798;2023-04-01T16:43:48;1.80;;;0.70;;
63394;SDS011;49531;-34.520;150.798;2023-04-01T16:46:33;1.25;;;0.50;;
63394;SDS011;49531;-34.520;150.798;2023-04-01T16:52:00;1.33;;;0.65;;
63394;SDS011;49531;-34.520;150.798;2023-04-01T16:54:43;1.83;;;0.63;;
63394;SDS011;49531;-34.520;150.798;2023-04-01T16:57:24;0.85;;;0.70;;
63394;SDS011;49531;-34.520;150.798;2023-04-01T17:02:49;1.33;;;0.50;;
63394;SDS011;49531;-34.520;150.798;2023-04-01T17:05:37;1.50;;;0.60;;
63394;SDS011;49531;-34.520;150.798;2023-04-01T17:11:07;1.50;;;0.57;;
63394;SDS011;49531;-34.520;150.798;2023-04-01T17:13:52;1.25;;;0.52;;
63394;SDS011;49531;-34.520;150.798;2023-04-01T17:16:41;1.10;;;0.57;;
63394;SDS011;49531;-34.520;150.798;2023-04-01T17:22:22;1.30;;;0.70;;
63394;SDS011;49531;-34.520;150.798;2023-04-01T17:28:28;2.13;;;0.60;;
63394;SDS011;49531;-34.520;150.798;2023-04-01T17:31:05;1.63;;;0.60;;
63394;SDS011;49531;-34.520;150.798;2023-04-01T17:33:45;0.65;;;0.50;;
63394;SDS011;49531;-34.520;150.798;2023-04-01T17:36:27;1.33;;;0.60;;
63394;SDS011;49531;-34.520;150.798;2023-04-01T17:39:25;1.20;;;0.50;;
63394;SDS011;49531;-34.520;150.798;2023-04-01T17:42:14;0.52;;;0.50;;
63394;SDS011;49531;-34.520;150.798;2023-04-01T17:44:57;1.33;;;0.68;;
63394;SDS011;49531;-34.520;150.798;2023-04-01T17:47:34;0.90;;;0.50;;
63394;SDS011;49531;-34.520;150.798;2023-04-01T17:53:01;1.37;;;0.60;;
63394;SDS011;49531;-34.520;150.798;2023-04-01T17:55:50;1.85;;;0.70;;
63394;SDS011;49531;-34.520;150.798;2023-04-01T17:58:29;1.05;;;0.52;;
63394;SDS011;49531;-34.520;150.798;2023-04-01T18:01:13;2.33;;;0.60;;
63394;SDS011;49531;-34.520;150.798;2023-04-01T18:03:55;1.10;;;0.52;;
